Latest Coastal Weather Observations for Maatsuyker Island

IDT60701

Issued at 8:02 pm EST Tuesday 31 May 2016 (issued every 10 minutes, with the page automatically refreshed every 10 minutes)

About coastal observations | Map of coastal stations | Coastal observations for TAS | Marine services | Other Formats
Station Details ID: 094041 Name: MAATSUYKER ISLAND LIGHTHOUSE Lat: -43.66 Lon: 146.27 Height: 146.5 m
Data from the previous 72 hours. | See also: Recent months at Maatsuyker Island
Date/Time
EST
Temp

°C
Wind Pressure Rain
since 9am
mm
Weather Cloud Vis
km
Sea
Height
m
Swell
Dir
 
Speed
knots
Gust
knots
hPa Trend Height
m
Period
s
Dir
31/08:00pm 8.7 N 4 4 1031.8 - 0.0 - - - - - - -
31/07:30pm 9.1 NE 2 5 1031.7 - 0.0 - - - - - - -
31/07:00pm 9.3 CALM 0 0 1031.6 - 0.0 - - - - - - -
31/06:30pm 9.6 NE 3 5 1031.5 - 0.0 - - - - - - -
31/06:00pm 9.0 CALM 0 0 1031.6 - 0.0 - - - - - - -
31/05:30pm 9.5 NNW 1 3 1031.3 - 0.0 - - - - - - -
31/05:00pm 9.7 CALM 0 0 1031.1 - 0.0 - - - - - - -
31/04:30pm 10.5 WNW 1 3 1031.0 - 0.0 - - - - - - -
31/04:00pm 10.5 NNE 1 4 1031.1 - 0.0 - - - - - - -
31/03:30pm 10.6 ENE 2 4 1031.1 - 0.0 - - - - - - -
31/03:00pm 10.5 E 2 5 1031.2 - 0.0 - - - - - - -
31/02:30pm 10.2 E 3 5 1031.0 - 0.0 - - - - - - -
31/02:00pm 10.3 ENE 3 4 1031.2 - 0.0 - - - - - - -
31/01:30pm 10.3 CALM 0 3 1031.5 - 0.0 - - - - - - -
31/01:00pm 9.9 CALM 0 4 1031.6 - 0.0 - - - - - - -
31/12:30pm 9.8 E 2 5 1031.9 - 0.0 - - - - - - -
31/12:00pm 10.1 ENE 1 4 1032.6 - 0.0 - - - - - - -
31/11:30am 9.1 E 3 5 1032.6 - 0.0 - - - - - - -
31/11:00am 10.0 N 1 4 1033.0 - 0.0 - - - - - - -
31/10:30am 8.7 CALM 0 3 1033.0 - 0.0 - - - - - - -
31/10:00am 8.7 NNE 2 4 1033.0 - 0.0 - - - - - - -
31/09:30am 7.2 CALM 0 2 1032.9 - 0.0 - - - - - - -
31/09:00am 7.4 NNE 3 0 1033.1 R 0.0 Fine Mostly clear 40 <0.1 2.5 13 SW
31/08:30am 7.1 N 1 4 1032.8 - 0.0 - - - - - - -
31/08:00am 7.0 N 3 4 1032.5 - 0.0 - - - - - - -
31/07:30am 6.8 N 3 5 1032.4 - 0.0 - - - - - - -
31/07:00am 6.5 N 5 6 1032.3 - 0.0 - - - - - - -
31/06:30am 6.7 N 5 6 1032.0 - 0.0 - - - - - - -
31/06:00am 6.6 NNE 5 5 1031.9 R 0.0 Fine Partly cloudy 25 <0.5 2.0 13 SW
31/05:30am 6.9 N 6 7 1031.6 - 0.0 - - - - - - -
31/05:00am 7.0 N 8 9 1031.4 - 0.0 - - - - - - -
31/04:30am 7.2 N 7 8 1031.1 - 0.0 - - - - - - -
31/04:00am 7.2 N 8 9 1031.0 - 0.0 - - - - - - -
31/03:30am 6.9 N 10 11 1031.1 - 0.0 - - - - - - -
31/03:00am 7.0 N 10 12 1031.3 - 0.0 - - - - - - -
31/02:30am 7.1 N 10 11 1031.0 - 0.0 - - - - - - -
31/02:00am 7.4 NNE 10 12 1030.9 - 0.0 - - - - - - -
31/01:30am 7.4 N 10 12 1030.8 - 0.0 - - - - - - -
31/01:00am 7.5 N 10 11 1030.8 - 0.0 - - - - - - -
31/12:30am 7.6 N 10 12 1030.9 - 0.0 - - - - - - -
31/12:00am 8.2 N 9 11 1031.3 - 0.0 - - - - - - -
 
Date/Time
EST
Temp

°C
Wind Pressure Rain
since 9am
mm
Weather Cloud Vis
km
Sea
Height
m
Swell
Dir
 
Speed
knots
Gust
knots
hPa Trend Height
m
Period
s
Dir
30/11:30pm 8.2 NNE 7 9 1031.2 - 0.0 - - - - - - -
30/11:00pm 8.4 N 8 9 1031.1 - 0.0 - - - - - - -
30/10:30pm 8.4 N 7 9 1031.0 - 0.0 - - - - - - -
30/10:00pm 8.5 N 8 10 1030.9 - 0.0 - - - - - - -
30/09:30pm 8.5 N 7 9 1030.7 - 0.0 - - - - - - -
30/09:00pm 8.5 NNE 5 8 1030.8 - 0.0 - - - - - - -
30/08:30pm 8.8 N 6 9 1030.3 - 0.0 - - - - - - -
30/08:00pm 8.8 N 6 8 1030.2 - 0.0 - - - - - - -
30/07:30pm 8.9 N 7 9 1030.0 - 0.0 - - - - - - -
30/07:00pm 8.9 NNE 3 6 1029.8 - 0.0 - - - - - - -
30/06:30pm 8.8 NNE 1 4 1029.6 - 0.0 - - - - - - -
30/06:00pm 9.0 NE 2 5 1029.7 - 0.0 - - - - - - -
30/05:30pm 9.3 NW 2 4 1029.1 - 0.0 - - - - - - -
30/05:00pm 9.0 SW 5 7 1028.7 - 0.0 - - - - - - -
30/04:30pm 9.1 SSW 4 8 1028.4 - 0.0 - - - - - - -
30/04:00pm 9.2 SW 4 7 1028.1 - 0.0 - - - - - - -
30/03:30pm 9.4 W 4 7 1027.9 - 0.0 - - - - - - -
30/03:00pm 9.5 WNW 9 11 1028.0 - 0.0 - - - - - - -
30/02:30pm 9.5 WNW 5 7 1027.6 - 0.0 - - - - - - -
30/02:00pm 9.5 NW 5 7 1027.4 - 0.0 - - - - - - -
30/01:30pm 9.5 NNW 8 11 1027.4 - 0.0 - - - - - - -
30/01:00pm 9.4 NNW 8 11 1027.5 - 0.0 - - - - - - -
30/12:30pm 9.3 NNW 9 11 1027.5 - 0.0 - - - - - - -
30/12:00pm 9.3 WNW 5 9 1027.9 - 0.0 - - - - - - -
30/11:30am 9.3 NNE 4 6 1027.8 - 0.0 - - - - - - -
30/11:00am 9.3 N 6 8 1027.8 - 0.0 - - - - - - -
30/10:30am 9.3 NW 5 8 1027.7 - 0.0 - - - - - - -
30/10:00am 9.1 NNW 5 7 1027.5 - 0.0 - - - - - - -
30/09:30am 8.9 NNW 8 11 1027.3 - 0.0 - - - - - - -
30/09:00am 8.8 NW 5 12 1027.4 R 0.8 Fine Mostly cloudy 30 <0.5 2.0 14 SW
30/08:30am 8.7 NW 9 11 1026.8 - 0.8 - - - - - - -
30/08:00am 8.8 NNW 10 13 1026.4 - 0.8 - - - - - - -
30/07:30am 8.6 SW 7 9 1026.2 - 0.8 - - - - - - -
30/07:00am 8.4 S 4 9 1026.0 - 0.8 - - - - - - -
30/06:30am 8.5 W 7 11 1025.7 - 0.8 - - - - - - -
30/06:00am 8.2 NNW 5 9 1025.5 R 0.8 Fine Cloudy 25 <0.5 1.5 14 SW
30/05:30am 8.4 NNW 8 15 1025.0 - 0.8 - - - - - - -
30/05:00am 8.5 NW 14 17 1024.7 - 0.8 - - - - - - -
30/04:30am 8.2 W 5 8 1024.6 - 0.8 - - - - - - -
30/04:00am 8.1 NW 6 11 1024.4 - 0.8 - - - - - - -
30/03:30am 8.0 NW 4 8 1024.3 - 0.8 - - - - - - -
30/03:00am 8.1 WNW 7 11 1024.3 - 0.8 - - - - - - -
30/02:30am 8.1 WNW 8 11 1024.0 - 0.8 - - - - - - -
30/02:00am 8.0 SW 5 8 1023.7 - 0.8 - - - - - - -
30/01:30am 8.1 W 2 6 1023.6 - 0.8 - - - - - - -
30/01:00am 8.1 SSW 8 11 1023.3 - 0.8 - - - - - - -
30/12:30am 8.0 NNW 2 5 1023.1 - 0.8 - - - - - - -
30/12:00am 8.2 SSW 4 9 1023.4 - 0.8 - - - - - - -
 
Date/Time
EST
Temp

°C
Wind Pressure Rain
since 9am
mm
Weather Cloud Vis
km
Sea
Height
m
Swell
Dir
 
Speed
knots
Gust
knots
hPa Trend Height
m
Period
s
Dir
29/11:30pm 8.2 S 10 14 1022.7 - 0.8 - - - - - - -
29/11:00pm 8.2 SW 8 11 1022.6 - 0.8 - - - - - - -
29/10:30pm 8.3 WSW 8 12 1022.5 - 0.8 - - - - - - -
29/10:00pm 8.4 W 8 12 1022.5 - 0.8 - - - - - - -
29/09:30pm 8.4 W 7 11 1022.3 - 0.8 - - - - - - -
29/09:00pm 8.1 S 9 11 1022.3 - 0.8 - - - - - - -
29/08:30pm 8.2 WSW 11 14 1021.8 - 0.8 - - - - - - -
29/08:00pm 8.5 W 10 13 1021.5 - 0.8 - - - - - - -
29/07:30pm 8.4 W 9 12 1021.0 - 0.8 - - - - - - -
29/07:00pm 8.3 WNW 11 14 1020.7 - 0.8 - - - - - - -
29/06:30pm 8.4 WNW 10 12 1020.2 - 0.8 - - - - - - -
29/06:00pm 8.5 W 10 13 1020.1 - 0.8 - - - - - - -
29/05:30pm 8.8 W 10 13 1019.6 - 0.8 - - - - - - -
29/05:00pm 8.9 WSW 10 14 1019.3 - 0.8 - - - - - - -
29/04:30pm 8.9 SW 10 13 1019.1 - 0.8 - - - - - - -
29/04:00pm 9.0 SSW 13 18 1018.8 - 0.8 - - - - - - -
29/03:30pm 9.1 SSW 15 19 1018.5 - 0.8 - - - - - - -
29/03:00pm 9.1 SSW 16 20 1018.3 - 0.8 - - - - - - -
29/02:30pm 9.4 S 17 21 1017.6 - - - - - - - - -
29/02:00pm 9.4 S 17 22 1017.4 - 0.8 - - - - - - -
29/01:30pm 9.1 S 18 23 1017.2 - 0.8 - - - - - - -
29/01:00pm 9.1 S 20 25 1016.9 - 0.8 - - - - - - -
29/12:30pm 9.0 S 19 25 1016.8 - 0.8 - - - - - - -
29/12:00pm 9.2 S 23 27 1016.9 - 0.8 - - - - - - -
29/11:30am 9.2 S 26 28 1016.6 - 0.8 - - - - - - -
29/11:00am 9.0 S 26 29 1016.5 - 0.8 - - - - - - -
29/10:30am 9.1 S 26 31 1016.1 - 0.6 - - - - - - -
29/10:00am 9.1 S 27 31 1015.8 - 0.4 - - - - - - -
29/09:30am 9.0 S 23 27 1015.8 - 0.4 - - - - - - -
29/09:06am 9.1 S 22 33 1015.4 - 0.2 - - - - - - -
29/09:00am 9.2 S 21 31 1015.9 R 21.0 Showers Cloudy 5 2 2.0 12 S
29/08:42am 9.4 S 20 23 1015.2 - 20.6 - - - - - - -
29/08:37am 9.4 SE 17 20 1015.1 - 20.6 - - - - - - -
29/08:30am 9.4 S 23 29 1014.9 - 20.2 - - - - - - -
29/08:00am 9.1 S 25 28 1014.6 - 20.2 - - - - - - -
29/07:30am 9.3 S 21 25 1014.1 - 19.6 - - - - - - -
29/07:16am 8.9 S 19 21 1014.1 - 19.6 - - - - - - -
29/07:06am 9.1 SSE 30 32 1013.5 - 19.0 - - - - - - -
29/07:04am 9.1 S 19 29 1013.6 - 18.6 - - - - - - -
29/07:00am 8.9 S 20 25 1014.0 - 18.6 - - - - - - -
29/06:30am 9.3 SSE 22 25 1013.4 - 18.4 - - - - - - -
29/06:29am 9.3 SSE 22 25 1013.4 - 18.4 - - - - - - -
29/06:17am 9.6 ESE 17 27 1013.1 - 18.4 - - - - - - -
29/06:12am 9.7 SSE 27 32 1012.7 - 18.2 - - - - - - -
29/06:06am 9.3 S 24 27 1013.2 - 18.2 - - - - - - -
29/06:00am 9.1 ESE 12 25 1013.3 R 18.2 Showers Mostly cloudy 15 1 2.0 13 SW
29/05:41am 9.0 E 9 15 1013.0 - 17.8 - - - - - - -
29/05:32am 8.8 SSE 23 26 1012.9 - 17.6 - - - - - - -
29/05:31am 8.8 SE 15 26 1012.8 - 17.6 - - - - - - -
29/05:30am 8.9 ESE 11 19 1012.9 - 17.6 - - - - - - -
29/05:00am 8.5 NE 6 15 1012.8 - 16.4 - - - - - - -
29/04:30am 8.6 S 19 23 1012.6 - 15.2 - - - - - - -
29/04:00am 8.9 S 24 28 1012.3 - 14.6 - - - - - - -
29/03:30am 9.4 S 25 29 1011.9 - 14.6 - - - - - - -
29/03:05am 9.2 S 21 31 1011.9 - 14.2 - - - - - - -
29/03:00am 8.9 S 21 25 1012.1 - 14.2 - - - - - - -
29/02:51am 8.7 S 22 26 1012.0 - 14.2 - - - - - - -
29/02:42am 9.2 SSE 21 31 1011.4 - 13.0 - - - - - - -
29/02:30am 8.8 S 22 25 1011.5 - 13.0 - - - - - - -
29/02:29am 8.8 S 23 25 1011.6 - 13.0 - - - - - - -
29/02:22am 8.6 SE 21 26 1011.5 - 13.0 - - - - - - -
29/02:18am 8.5 E 11 23 1011.4 - 13.0 - - - - - - -
29/02:16am 8.6 SSE 24 34 1011.5 - 12.8 - - - - - - -
29/02:10am 9.0 SSE 25 34 1011.2 - 11.4 - - - - - - -
29/02:06am 9.1 SE 16 26 1011.2 - 10.4 - - - - - - -
29/02:00am 9.2 ESE 12 17 1011.4 - 9.6 - - - - - - -
29/01:50am 9.4 NE 9 20 1011.1 - 7.2 - - - - - - -
29/01:49am 9.4 SE 20 32 1011.0 - 7.2 - - - - - - -
29/01:46am 9.6 SSE 27 32 1010.7 - 7.0 - - - - - - -
29/01:31am 9.2 S 23 25 1011.3 - 6.8 - - - - - - -
29/01:30am 9.2 SSE 17 25 1011.3 - 6.8 - - - - - - -
29/01:00am 8.7 SSE 10 14 1011.3 - 6.2 - - - - - - -
29/12:30am 9.4 SSW 17 22 1011.1 - 5.6 - - - - - - -
29/12:00am 9.1 S 12 14 1011.5 - 5.2 - - - - - - -
 
Date/Time
EST
Temp

°C
Wind Pressure Rain
since 9am
mm
Weather Cloud Vis
km
Sea
Height
m
Swell
Dir
 
Speed
knots
Gust
knots
hPa Trend Height
m
Period
s
Dir
28/11:30pm 9.9 S 18 27 1010.8 - 4.6 - - - - - - -
28/11:00pm 9.9 S 16 19 1010.9 - 4.6 - - - - - - -
28/10:30pm 9.6 S 17 19 1010.8 - 4.6 - - - - - - -
28/10:00pm 9.5 S 13 17 1010.9 - 4.6 - - - - - - -
28/09:30pm 9.5 S 17 21 1010.9 - 4.6 - - - - - - -
28/09:00pm 9.2 S 23 26 1010.6 - 4.6 - - - - - - -
28/08:30pm 8.9 S 24 27 1010.2 - 4.0 - - - - - - -

Other Formats:

Comma delimited format used in spreadsheet applications
http://www.bom.gov.au/fwo/IDT60701/IDT60701.94962.axf

JavaScript Object Notation format (JSON) in row-major order
http://www.bom.gov.au/fwo/IDT60701/IDT60701.94962.json